Flight Track Log - Related Links

Times and Time Zones

All times are in EDT time to prevent confusion due to time zone crossing. See the SKW5479 flight status page for this flight to view local times or setup timezone preferences in your user account.

Time Position Orientation Groundspeed Altitude Reporting Facility
EDT Latitude Longitude Course Direction KTS MPH feet Rate Location/Type
Wed 11:59:24 PM 37.6333 -122.3667 360° North 137 158 800  Level Northern Cal TRACON
Thu 12:00:19 AM 37.6667 -122.3667 238° Southwest 149 171 2,700 1,930 Climbing Northern Cal TRACON
Thu 12:01:19 AM 37.6500 -122.4000 165° South 184 212 4,500 1,700 Climbing Northern Cal TRACON
Thu 12:02:19 AM 37.6000 -122.3833 169° South 186 214 6,100 1,228 Climbing Northern Cal TRACON
Thu 12:03:26 AM 37.5333 -122.3667 152° Southeast 210 242 7,100 472 Climbing Northern Cal TRACON
Thu 12:04:26 AM 37.4833 -122.3333 158° South 252 290 7,100  Level Northern Cal TRACON
Thu 12:05:26 AM 37.4167 -122.3000 162° South 261 300 7,100  Level Northern Cal TRACON
Thu 12:06:27 AM 37.3333 -122.2667 158° South 257 296 7,100  Level Northern Cal TRACON
Thu 12:07:27 AM 37.2667 -122.2333 158° South 253 291 7,100 -50 Level Northern Cal TRACON
Thu 12:08:28 AM 37.2000 -122.2000 158° South 251 289 7,000 -47 Descending Northern Cal TRACON
Thu 12:09:34 AM 37.1333 -122.1667 169° South 249 287 7,000  Level Northern Cal TRACON
Thu 12:10:35 AM 37.0667 -122.1500 152° Southeast 251 289 7,000  Level Northern Cal TRACON
Thu 12:11:29 AM 37.0167 -122.1167 162° South 252 290 7,000  Level Northern Cal TRACON
Thu 12:12:30 AM 36.9333 -122.0833 152° Southeast 253 291 7,000 -99 Level Northern Cal TRACON
Thu 12:13:30 AM 36.8833 -122.0500 162° South 253 291 6,800 -850 Descending Northern Cal TRACON
Thu 12:14:37 AM 36.8000 -122.0167 158° South 270 311 5,200 -1,559 Descending Northern Cal TRACON
Thu 12:15:37 AM 36.7333 -121.9833 169° South 272 313 3,500 -1,617 Descending Northern Cal TRACON
Thu 12:16:32 AM 36.6667 -121.9667 141° Southeast 263 303 2,100 -992 Descending Northern Cal TRACON
Thu 12:17:38 AM 36.6167 -121.9167 113° Southeast 214 246 1,500 -843 Descending Northern Cal TRACON
Thu 12:18:33 AM 36.6000 -121.8667 122° Southeast 140 161 400 -626 Descending Northern Cal TRACON
Thu 12:19:33 AM 36.5833 -121.8333 122° Southeast 137 158 300 -100 Descending Northern Cal TRACON

Login

Don't have an account? Register now (free) for customized features, flight alerts, and more!